Terminal Aerodrome Forecast
Issued by NWS Jackson, MS

Home | Current Version | Previous Version | Text Only | Print | Product List | Glossary On
Versions: 1 2 3 4 5 6 7 8 9 10 11 12 13
000
FTUS44 KJAN 191100
TAFHBG
TAF
KHBG 191120Z 1912/2012 05004KT P6SM VCSH OVC020
     FM191300 05004KT 6SM -RA OVC025
     FM192000 05005KT 2SM RA BR VCTS BKN007 OVC012CB
     FM200100 06006KT P6SM -RA BKN025
     FM200500 03005KT 5SM BR OVC005=

USA.gov is the U.S. government's official web portal to all federal, state and local government web resources and services.